Sun Princess — ZCBU6 — position and weather

sailwx.info

Track history (hours):
 
Tides and Currents Weather Stations Pressure Air Temp Water Temp Dewpoint Dewpoint Depression Visibility Wind Speed Wind Dir Waves Ship Positions

Sun Princess

Operator: Princess Cruises

Last reported at 2017-Apr-24 10:59 UTC. Time now 2017-Apr-24 11:21 UTC.
Position S 32°30' E 152°53'.

Length 261.3 m; beam 32.3 m; draft 8.1 m.

Type: Passenger vessel. MMSI: 310438000.

Date/timePositionNaut miles runAvg speedWind from/ knotsBaromVisibWave heightAir tempDewpointWater temp
2017-Apr-24 10:59S 32°30' E 152°53'1113.8
2017-Apr-24 10:11S 32°19' E 152°56'24014.7
2017-Apr-23 17:55S 28°24' E 153°52'817.6
2017-Apr-23 17:27S 28°16' E 153°51'817.4
2017-Apr-23 17:00S 28°08' E 153°50'917.7
2017-Apr-23 16:30S 27°59' E 153°48'917.9
2017-Apr-23 16:00S 27°51' E 153°46'917.8
2017-Apr-23 15:30S 27°42' E 153°45'918.0
2017-Apr-23 15:01S 27°33' E 153°43'1818.2
2017-Apr-23 14:00S 27°15' E 153°39'917.8
2017-Apr-23 13:30S 27°07' E 153°36'918.1
2017-Apr-23 13:01S 26°58' E 153°34'816.1
2017-Apr-23 12:30S 26°52' E 153°28'917.7
2017-Apr-23 12:00S 26°48' E 153°20'917.1
2017-Apr-23 11:30S 26°42' E 153°12'611.7
2017-Apr-23 11:00S 26°48' E 153°11'713.6
2017-Apr-23 10:30S 26°55' E 153°11'918.0
2017-Apr-23 10:00S 27°03' E 153°16'816.2
2017-Apr-23 09:30S 27°09' E 153°21'816.5
2017-Apr-23 09:01S 27°16' E 153°16'815.1
2017-Apr-23 08:30S 27°22' E 153°10'4 7.9
2017-Apr-23 08:00S 27°25' E 153°08'3 6.0
2017-Apr-23 07:30S 27°27' E 153°05'1 2.4
2017-Apr-23 06:59S 27°26' E 153°04'0 0.0
2017-Apr-23 06:29S 27°26' E 153°04'0 0.0
2017-Apr-23 04:53S 27°26' E 153°04'0 0.0
2017-Apr-23 04:26S 27°26' E 153°04'0 0.0
2017-Apr-23 01:16S 27°26' E 153°04'0 0.0
2017-Apr-23 00:55S 27°26' E 153°04'0 0.0
2017-Apr-23 00:28S 27°26' E 153°04'0 0.0
2017-Apr-22 23:49S 27°26' E 153°04'0 0.0
2017-Apr-22 23:28S 27°26' E 153°04'0 0.0
2017-Apr-22 22:58S 27°26' E 153°04'0 0.0
2017-Apr-22 22:28S 27°26' E 153°04'0 0.0
2017-Apr-22 21:55S 27°26' E 153°04'0 0.0
2017-Apr-22 21:28S 27°26' E 153°04'0 0.0
2017-Apr-22 20:58S 27°26' E 153°04'0 0.0
2017-Apr-22 20:28S 27°26' E 153°04'1 3.1
2017-Apr-22 20:00S 27°27' E 153°06'3 6.5
2017-Apr-22 19:30S 27°25' E 153°09'4 8.0
2017-Apr-22 19:00S 27°21' E 153°11'612.9
2017-Apr-22 18:30S 27°17' E 153°15'815.2
2017-Apr-22 18:00S 27°11' E 153°21'816.4
2017-Apr-22 17:30S 27°03' E 153°17'917.1
2017-Apr-22 17:00S 26°56' E 153°12'713.9
2017-Apr-22 16:30S 26°49' E 153°10'714.7
2017-Apr-22 16:00S 26°42' E 153°12'59212.6
2017-Apr-20 17:00S 20°12' E 161°18'15312.7 130 / 351011.910.8 25.023.628.0
2017-Apr-20 05:00S 18°36' E 163°24'   110 / 261010.110.8 27.025.728.0
2017-Apr-15 18:00S 10°54' E 162°54'   030 / 81007.310.8 27.025.930.8
Track history (hours):
 
Tides and Currents Weather Stations Pressure Air Temp Water Temp Dewpoint Dewpoint Depression Visibility Wind Speed Wind Dir Waves Ship Positions

Sun Princess

Operator: Princess Cruises

Last reported at 2017-Apr-24 10:59 UTC. Time now 2017-Apr-24 11:21 UTC.
Position S 32°30' E 152°53'.

Length 261.3 m; beam 32.3 m; draft 8.1 m.

Type: Passenger vessel. MMSI: 310438000.

Date/timePositionNaut miles runAvg speedWind from/ knotsBaromVisibWave heightAir tempDewpointWater temp
2017-Apr-24 10:59S 32°30' E 152°53'1113.8
2017-Apr-24 10:11S 32°19' E 152°56'24014.7
2017-Apr-23 17:55S 28°24' E 153°52'817.6
2017-Apr-23 17:27S 28°16' E 153°51'817.4
2017-Apr-23 17:00S 28°08' E 153°50'917.7
2017-Apr-23 16:30S 27°59' E 153°48'917.9
2017-Apr-23 16:00S 27°51' E 153°46'917.8
2017-Apr-23 15:30S 27°42' E 153°45'918.0
2017-Apr-23 15:01S 27°33' E 153°43'1818.2
2017-Apr-23 14:00S 27°15' E 153°39'917.8
2017-Apr-23 13:30S 27°07' E 153°36'918.1
2017-Apr-23 13:01S 26°58' E 153°34'816.1
2017-Apr-23 12:30S 26°52' E 153°28'917.7
2017-Apr-23 12:00S 26°48' E 153°20'917.1
2017-Apr-23 11:30S 26°42' E 153°12'611.7
2017-Apr-23 11:00S 26°48' E 153°11'713.6
2017-Apr-23 10:30S 26°55' E 153°11'918.0
2017-Apr-23 10:00S 27°03' E 153°16'816.2
2017-Apr-23 09:30S 27°09' E 153°21'816.5
2017-Apr-23 09:01S 27°16' E 153°16'815.1
2017-Apr-23 08:30S 27°22' E 153°10'4 7.9
2017-Apr-23 08:00S 27°25' E 153°08'3 6.0
2017-Apr-23 07:30S 27°27' E 153°05'1 2.4
2017-Apr-23 06:59S 27°26' E 153°04'0 0.0
2017-Apr-23 06:29S 27°26' E 153°04'0 0.0
2017-Apr-23 04:53S 27°26' E 153°04'0 0.0
2017-Apr-23 04:26S 27°26' E 153°04'0 0.0
2017-Apr-23 01:16S 27°26' E 153°04'0 0.0
2017-Apr-23 00:55S 27°26' E 153°04'0 0.0
2017-Apr-23 00:28S 27°26' E 153°04'0 0.0
2017-Apr-22 23:49S 27°26' E 153°04'0 0.0
2017-Apr-22 23:28S 27°26' E 153°04'0 0.0
2017-Apr-22 22:58S 27°26' E 153°04'0 0.0
2017-Apr-22 22:28S 27°26' E 153°04'0 0.0
2017-Apr-22 21:55S 27°26' E 153°04'0 0.0
2017-Apr-22 21:28S 27°26' E 153°04'0 0.0
2017-Apr-22 20:58S 27°26' E 153°04'0 0.0
2017-Apr-22 20:28S 27°26' E 153°04'1 3.1
2017-Apr-22 20:00S 27°27' E 153°06'3 6.5
2017-Apr-22 19:30S 27°25' E 153°09'4 8.0
2017-Apr-22 19:00S 27°21' E 153°11'612.9
2017-Apr-22 18:30S 27°17' E 153°15'815.2
2017-Apr-22 18:00S 27°11' E 153°21'816.4
2017-Apr-22 17:30S 27°03' E 153°17'917.1
2017-Apr-22 17:00S 26°56' E 153°12'713.9
2017-Apr-22 16:30S 26°49' E 153°10'714.7
2017-Apr-22 16:00S 26°42' E 153°12'59212.6
2017-Apr-20 17:00S 20°12' E 161°18'15312.7 130 / 351011.910.8 25.023.628.0
2017-Apr-20 05:00S 18°36' E 163°24'   110 / 261010.110.8 27.025.728.0
2017-Apr-15 18:00S 10°54' E 162°54'   030 / 81007.310.8 27.025.930.8

Dump ship's entire track history